Time;durP1;ratioP1;P1;durP2;ratioP2;P2;SDS_P1;SDS_P2;PMS_P1;PMS_P2;Temp;Humidity;BMP_temperature;BMP_pressure;BME280_temperature;BME280_humidity;BME280_pressure;Samples;Min_cycle;Max_cycle;Signal;HPM_P1;HPM_P2
2022/01/31 00:00:22;;;;;;;10.93;3.60;;;;;;;;;;7362979;19;20136;-42
2022/01/31 00:02:54;;;;;;;5.30;3.05;;;;;;;;;;7346209;19;20170;-42
2022/01/31 00:05:27;;;;;;;12.68;3.95;;;;;;;;;;7367068;19;20229;-42
2022/01/31 00:07:56;;;;;;;9.95;3.95;;;;;;;;;;7356729;19;20150;-42
2022/01/31 00:10:30;;;;;;;6.93;3.42;;;;;;;;;;7353688;19;20144;-43
2022/01/31 00:13:06;;;;;;;11.85;3.28;;;;;;;;;;7344495;19;20135;-42
2022/01/31 00:15:42;;;;;;;14.07;3.63;;;;;;;;;;7354841;19;20127;-42
2022/01/31 00:18:17;;;;;;;12.73;3.53;;;;;;;;;;7355353;19;20135;-42
2022/01/31 00:20:46;;;;;;;6.70;3.58;;;;;;;;;;7344330;19;20144;-42
2022/01/31 00:23:16;;;;;;;6.55;3.28;;;;;;;;;;7358575;19;20162;-42
2022/01/31 00:25:48;;;;;;;4.63;3.15;;;;;;;;;;7363426;19;21476;-43
2022/01/31 00:28:17;;;;;;;15.45;4.28;;;;;;;;;;7362460;19;20154;-42
2022/01/31 00:30:49;;;;;;;13.15;5.18;;;;;;;;;;7361316;19;21004;-42
2022/01/31 00:33:24;;;;;;;3.80;2.90;;;;;;;;;;7359223;19;20571;-41
2022/01/31 00:35:56;;;;;;;7.18;3.03;;;;;;;;;;7361308;19;20869;-43
2022/01/31 00:38:28;;;;;;;9.38;3.10;;;;;;;;;;7355159;19;20138;-42
2022/01/31 00:41:02;;;;;;;13.43;3.22;;;;;;;;;;7362493;19;20199;-43
2022/01/31 00:43:34;;;;;;;6.88;3.33;;;;;;;;;;7360882;19;20534;-43
2022/01/31 00:46:11;;;;;;;13.30;3.35;;;;;;;;;;7365061;19;20138;-42
2022/01/31 00:48:45;;;;;;;8.27;4.15;;;;;;;;;;7361500;19;20493;-41
2022/01/31 00:51:17;;;;;;;8.88;3.50;;;;;;;;;;7366880;19;20155;-42
2022/01/31 00:53:49;;;;;;;10.68;3.55;;;;;;;;;;7367661;19;20436;-42
2022/01/31 00:56:21;;;;;;;15.65;3.50;;;;;;;;;;7364750;19;20146;-43
2022/01/31 00:58:53;;;;;;;6.63;2.60;;;;;;;;;;7373048;19;20658;-42
2022/01/31 01:01:25;;;;;;;7.55;3.28;;;;;;;;;;7362578;19;20135;-42
2022/01/31 01:03:57;;;;;;;11.20;3.05;;;;;;;;;;7374783;19;20131;-42
2022/01/31 01:06:29;;;;;;;5.57;3.35;;;;;;;;;;7374644;19;20156;-43
2022/01/31 01:09:02;;;;;;;5.70;3.50;;;;;;;;;;7358835;19;20143;-42
2022/01/31 01:11:32;;;;;;;5.60;3.10;;;;;;;;;;7360996;19;20584;-42
2022/01/31 01:14:02;;;;;;;5.38;2.72;;;;;;;;;;7363090;19;20139;-42
2022/01/31 01:16:36;;;;;;;6.68;3.20;;;3.80;67.40;;;;;;7362048;19;20130;-43
2022/01/31 01:19:08;;;;;;;6.63;3.70;;;4.50;67.80;;;;;;7367001;19;20140;-42
2022/01/31 01:21:38;;;;;;;6.60;3.25;;;;;;;;;;7356798;19;20154;-43
2022/01/31 01:24:14;;;;;;;12.65;3.30;;;;;;;;;;7359206;19;20131;-42
2022/01/31 01:26:48;;;;;;;7.43;3.92;;;;;;;;;;7362978;19;20134;-42
2022/01/31 01:29:20;;;;;;;6.22;3.80;;;;;;;;;;7366958;19;20124;-42
2022/01/31 01:31:50;;;;;;;7.95;4.45;;;;;;;;;;7371279;19;20136;-43
2022/01/31 01:34:26;;;;;;;9.75;4.10;;;;;;;;;;7365956;19;21128;-42
2022/01/31 01:36:56;;;;;;;7.75;3.25;;;;;;;;;;7365224;19;20131;-43
2022/01/31 01:39:28;;;;;;;12.02;3.60;;;;;;;;;;7358389;19;20131;-43
2022/01/31 01:42:00;;;;;;;7.60;3.72;;;;;;;;;;7364201;19;20152;-43
2022/01/31 01:44:42;;;;;;;12.25;5.50;;;;;;;;;;7369701;19;20139;-43
2022/01/31 01:47:17;;;;;;;16.48;3.33;;;;;;;;;;7360173;19;20226;-42
2022/01/31 01:49:50;;;;;;;6.50;3.55;;;;;;;;;;7380881;19;20131;-43
2022/01/31 01:52:25;;;;;;;8.05;3.35;;;;;;;;;;7373204;19;20190;-42
2022/01/31 01:54:55;;;;;;;6.78;3.20;;;;;;;;;;7375295;19;20132;-41
2022/01/31 01:57:29;;;;;;;9.77;3.08;;;;;;;;;;7373147;19;21652;-42
2022/01/31 01:59:59;;;;;;;9.05;3.78;;;;;;;;;;7370927;19;20138;-43
2022/01/31 02:02:40;;;;;;;5.85;2.85;;;;;;;;;;7365101;19;20135;-42
2022/01/31 02:05:17;;;;;;;8.48;3.42;;;;;;;;;;7376243;19;20216;-43
2022/01/31 02:07:50;;;;;;;7.57;3.23;;;;;;;;;;7228592;19;2804650;-43
2022/01/31 02:10:20;;;;;;;6.93;3.15;;;;;;;;;;7375538;19;20143;-42
2022/01/31 02:13:15;;;;;;;7.35;3.13;;;;;;;;;;7370610;19;20663;-42
2022/01/31 02:16:08;;;;;;;6.85;3.28;;;;;;;;;;7367997;19;20143;-42
2022/01/31 02:18:52;;;;;;;8.20;3.13;;;;;;;;;;7375322;19;20127;-42
2022/01/31 02:21:47;;;;;;;11.85;3.97;;;;;;;;;;7371648;19;20135;-41
2022/01/31 02:24:35;;;;;;;6.88;2.60;;;;;;;;;;7369867;19;20206;-42
2022/01/31 02:27:34;;;;;;;5.90;2.35;;;;;;;;;;7375074;19;20196;-42
2022/01/31 02:30:08;;;;;;;7.25;3.13;;;;;;;;;;7355445;19;20220;-42
2022/01/31 02:32:42;;;;;;;9.05;2.85;;;;;;;;;;7368789;19;20792;-42
2022/01/31 02:35:14;;;;;;;6.70;3.20;;;;;;;;;;7373230;19;20127;-42
2022/01/31 02:37:48;;;;;;;8.32;3.60;;;;;;;;;;7369097;19;20619;-43
2022/01/31 02:40:29;;;;;;;6.70;3.08;;;;;;;;;;7370740;19;20146;-42
2022/01/31 02:43:02;;;;;;;10.10;3.35;;;;;;;;;;7369899;19;20166;-42
2022/01/31 02:45:34;;;;;;;7.35;3.22;;;;;;;;;;7371805;19;20146;-43
2022/01/31 02:48:08;;;;;;;5.13;3.30;;;;;;;;;;7367807;19;20160;-42
2022/01/31 02:50:38;;;;;;;8.00;3.58;;;;;;;;;;7374330;19;20135;-42
2022/01/31 02:53:22;;;;;;;10.82;3.88;;;;;;;;;;7370202;19;20131;-42
2022/01/31 02:55:52;;;;;;;5.82;3.25;;;;;;;;;;7364078;19;20666;-43
2022/01/31 02:58:24;;;;;;;6.50;3.10;;;;;;;;;;7372619;19;20124;-42
2022/01/31 03:00:55;;;;;;;11.32;3.65;;;;;;;;;;7359532;19;20719;-42
2022/01/31 03:03:32;;;;;;;8.63;3.85;;;;;;;;;;7367606;19;20159;-42
2022/01/31 03:06:04;;;;;;;9.88;3.95;;;;;;;;;;7367534;19;20127;-42
2022/01/31 03:08:36;;;;;;;4.68;3.13;;;;;;;;;;7364353;19;20208;-42
2022/01/31 03:11:18;;;;;;;7.53;3.10;;;;;;;;;;7370794;19;20155;-42
2022/01/31 03:14:09;;;;;;;4.03;3.45;;;;;;;;;;7362228;19;20132;-41
2022/01/31 03:16:44;;;;;;;4.80;2.70;;;;;;;;;;7365796;19;20132;-42
2022/01/31 03:19:14;;;;;;;12.50;3.50;;;;;;;;;;7360177;19;20139;-42
2022/01/31 03:21:47;;;;;;;6.78;3.55;;;;;;;;;;7363014;19;20172;-42
2022/01/31 03:24:22;;;;;;;11.10;4.13;;;;;;;;;;7366807;19;20195;-42
2022/01/31 03:26:51;;;;;;;11.00;4.78;;;;;;;;;;7366524;19;20510;-42
2022/01/31 03:29:23;;;;;;;12.35;4.32;;;;;;;;;;7367881;19;20780;-42
2022/01/31 03:31:54;;;;;;;8.30;3.95;;;;;;;;;;7363300;19;20195;-42
2022/01/31 03:34:23;;;;;;;10.68;3.60;;;;;;;;;;7367756;19;20131;-42
2022/01/31 03:36:53;;;;;;;7.50;3.80;;;;;;;;;;7369746;19;20135;-42
2022/01/31 03:39:29;;;;;;;12.63;3.95;;;;;;;;;;7369389;19;20128;-43
2022/01/31 03:41:58;;;;;;;4.97;3.10;;;;;;;;;;7369484;19;20147;-42
2022/01/31 03:44:29;;;;;;;7.75;2.60;;;;;;;;;;7369519;19;20162;-42
2022/01/31 03:46:59;;;;;;;7.88;3.70;;;;;;;;;;7369229;19;20138;-42
2022/01/31 03:49:29;;;;;;;6.72;3.88;;;;;;;;;;7366930;19;21169;-42
2022/01/31 03:52:04;;;;;;;10.00;3.90;;;;;;;;;;7368428;19;20123;-43
2022/01/31 03:54:45;;;;;;;10.35;3.97;;;;;;;;;;7368196;19;20523;-42
2022/01/31 03:57:18;;;;;;;9.13;3.65;;;;;;;;;;7368765;19;20131;-42
2022/01/31 04:00:04;;;;;;;6.30;3.80;;;;;;;;;;7367824;19;20131;-42
2022/01/31 04:02:34;;;;;;;7.45;3.30;;;;;;;;;;7354304;19;20816;-43
2022/01/31 04:05:04;;;;;;;7.88;3.08;;;;;;;;;;7370658;19;20234;-42
2022/01/31 04:07:33;;;;;;;5.72;3.60;;;;;;;;;;7365587;19;20155;-42
2022/01/31 04:10:06;;;;;;;9.63;4.20;;;;;;;;;;7371270;19;20503;-42
2022/01/31 04:12:36;;;;;;;5.97;3.15;;;;;;;;;;7366476;19;20138;-42
2022/01/31 04:15:05;;;;;;;7.18;4.05;;;;;;;;;;7368875;19;20132;-43
2022/01/31 04:17:37;;;;;;;6.35;2.90;;;;;;;;;;7372991;19;20139;-42
2022/01/31 04:20:08;;;;;;;7.55;3.72;;;;;;;;;;7373453;19;20134;-42
2022/01/31 04:22:44;;;;;;;8.63;3.00;;;;;;;;;;7368943;19;20227;-42
2022/01/31 04:25:28;;;;;;;7.25;3.65;;;;;;;;;;7369800;19;20498;-42
2022/01/31 04:28:02;;;;;;;3.85;2.50;;;;;;;;;;7365160;19;20128;-42
2022/01/31 04:30:45;;;;;;;14.15;3.05;;;;;;;;;;7368347;19;20524;-42
2022/01/31 04:33:14;;;;;;;6.30;3.50;;;;;;;;;;7370490;19;20131;-42
2022/01/31 04:35:46;;;;;;;8.10;2.35;;;;;;;;;;7372827;19;20132;-42
2022/01/31 04:38:16;;;;;;;6.25;3.13;;;;;;;;;;7371538;19;20139;-42
2022/01/31 04:40:48;;;;;;;6.63;3.35;;;;;;;;;;7367804;19;20671;-42
2022/01/31 04:43:20;;;;;;;9.35;3.80;;;;;;;;;;7370964;19;20135;-44
2022/01/31 04:45:50;;;;;;;7.63;2.80;;;;;;;;;;7364829;19;20128;-42
2022/01/31 04:48:21;;;;;;;8.18;3.10;;;;;;;;;;7366223;19;20134;-42
2022/01/31 04:50:51;;;;;;;5.25;2.63;;;;;;;;;;7369771;19;20477;-43
2022/01/31 04:53:20;;;;;;;6.53;3.42;;;;;;;;;;7370308;19;20143;-42
2022/01/31 04:55:55;;;;;;;7.57;2.70;;;;;;;;;;7369106;19;20516;-42
2022/01/31 04:58:25;;;;;;;8.05;3.65;;;;;;;;;;7362848;19;20599;-42
2022/01/31 05:00:55;;;;;;;13.35;2.80;;;;;;;;;;7356365;19;20620;-43
2022/01/31 05:03:27;;;;;;;5.35;3.10;;;;;;;;;;7349083;19;20433;-42
2022/01/31 05:06:00;;;;;;;9.95;3.10;;;;;;;;;;7359146;19;20143;-42
2022/01/31 05:08:29;;;;;;;8.30;3.00;;;;;;;;;;7364054;19;20178;-41
2022/01/31 05:11:03;;;;;;;10.95;3.30;;;;;;;;;;7354384;19;20750;-42
2022/01/31 05:13:33;;;;;;;10.43;2.40;;;;;;;;;;7353476;19;20131;-43
2022/01/31 05:16:02;;;;;;;9.18;2.83;;;;;;;;;;7354134;19;21015;-42
2022/01/31 05:18:33;;;;;;;6.53;4.20;;;;;;;;;;7356672;19;20132;-42
2022/01/31 05:21:05;;;;;;;7.40;2.90;;;;;;;;;;7361286;19;20706;-43
2022/01/31 05:23:35;;;;;;;5.60;2.55;;;;;;;;;;7355505;19;20152;-43
2022/01/31 05:26:07;;;;;;;9.10;3.47;;;;;;;;;;7360598;19;20128;-42
2022/01/31 05:28:37;;;;;;;7.78;3.53;;;;;;;;;;7354612;19;20635;-42
2022/01/31 05:31:06;;;;;;;4.53;2.45;;;;;;;;;;7362357;19;20191;-42
2022/01/31 05:33:36;;;;;;;3.08;2.78;;;;;;;;;;7343440;19;20179;-42
2022/01/31 05:36:06;;;;;;;5.70;2.47;;;;;;;;;;7351490;19;20732;-42
2022/01/31 05:38:39;;;;;;;13.05;3.67;;;;;;;;;;7355131;19;20190;-42
2022/01/31 05:41:18;;;;;;;8.20;3.10;;;;;;;;;;7361953;19;20809;-42
2022/01/31 05:43:47;;;;;;;17.35;3.40;;;;;;;;;;7370452;19;20610;-43
2022/01/31 05:46:17;;;;;;;5.45;2.63;;;;;;;;;;7376069;19;20265;-43
2022/01/31 05:48:47;;;;;;;5.32;2.80;;;;;;;;;;7377188;19;20703;-42
2022/01/31 05:51:20;;;;;;;7.15;2.60;;;;;;;;;;7374556;19;20139;-42
2022/01/31 05:53:50;;;;;;;7.38;2.83;;;;;;;;;;7372854;19;20147;-44
2022/01/31 05:56:22;;;;;;;6.00;2.90;;;;;;;;;;7373323;19;20146;-42
2022/01/31 05:58:52;;;;;;;8.10;3.13;;;;;;;;;;7371921;19;20146;-42
2022/01/31 06:01:22;;;;;;;3.88;2.33;;;;;;;;;;7366006;19;20135;-42
2022/01/31 06:03:51;;;;;;;8.70;3.92;;;;;;;;;;7362112;19;20131;-42
2022/01/31 06:06:21;;;;;;;11.50;2.85;;;;;;;;;;7368702;19;20162;-43
2022/01/31 06:08:51;;;;;;;6.88;2.63;;;;;;;;;;7373040;19;20728;-42
2022/01/31 06:11:26;;;;;;;4.75;2.53;;;;;;;;;;7372307;19;20147;-42
2022/01/31 06:14:00;;;;;;;5.65;2.35;;;;;;;;;;7370717;19;20500;-43
2022/01/31 06:16:30;;;;;;;5.75;2.80;;;;;;;;;;7370406;19;20695;-42
2022/01/31 06:19:01;;;;;;;4.60;2.80;;;;;;;;;;7375482;19;20157;-42
2022/01/31 06:21:33;;;;;;;3.90;2.95;;;;;;;;;;7367271;19;20150;-43
2022/01/31 06:24:09;;;;;;;6.25;2.85;;;;;;;;;;7379310;19;20124;-43
2022/01/31 06:26:42;;;;;;;8.38;3.05;;;;;;;;;;7375315;19;20131;-43
2022/01/31 06:29:22;;;;;;;6.93;2.85;;;;;;;;;;7374642;19;20131;-42
2022/01/31 06:31:58;;;;;;;6.85;3.25;;;;;;;;;;7369164;19;20152;-42
2022/01/31 06:34:33;;;;;;;5.75;2.58;;;;;;;;;;7377599;19;20139;-42
2022/01/31 06:37:04;;;;;;;8.68;4.22;;;;;;;;;;7374508;19;21022;-42
2022/01/31 06:39:38;;;;;;;6.63;2.90;;;;;;;;;;7375689;19;20183;-44
2022/01/31 06:42:14;;;;;;;6.68;3.67;;;;;;;;;;7371213;19;20212;-43
2022/01/31 06:44:46;;;;;;;9.23;3.05;;;;;;;;;;7377338;19;20245;-42
2022/01/31 06:47:19;;;;;;;19.67;4.15;;;;;;;;;;7371752;19;20594;-42
2022/01/31 06:49:48;;;;;;;7.50;2.83;;;;;;;;;;7369144;19;20224;-43
2022/01/31 06:52:20;;;;;;;7.53;3.60;;;;;;;;;;7372349;19;20187;-42
2022/01/31 06:54:51;;;;;;;6.53;3.15;;;;;;;;;;7368940;19;20143;-42
2022/01/31 06:57:25;;;;;;;9.50;3.15;;;;;;;;;;7379335;19;20135;-42
2022/01/31 06:59:55;;;;;;;7.28;3.45;;;;;;;;;;7371797;19;20140;-42
2022/01/31 07:02:27;;;;;;;9.40;3.08;;;;;;;;;;7348188;19;20738;-43
2022/01/31 07:05:00;;;;;;;8.30;3.45;;;;;;;;;;7366893;19;20595;-43
2022/01/31 07:07:30;;;;;;;8.30;4.47;;;;;;;;;;7369945;19;20753;-42
2022/01/31 07:10:01;;;;;;;8.80;3.65;;;;;;;;;;7370161;19;20139;-43
2022/01/31 07:12:36;;;;;;;4.18;2.80;;;;;;;;;;7371354;19;20135;-42
2022/01/31 07:15:07;;;;;;;6.70;3.30;;;;;;;;;;7367408;19;20169;-43
2022/01/31 07:17:40;;;;;;;7.55;3.33;;;;;;;;;;7364025;19;20715;-42
2022/01/31 07:20:19;;;;;;;11.40;3.53;;;;;;;;;;7371580;19;20131;-42
2022/01/31 07:22:56;;;;;;;5.85;2.80;;;;;;;;;;7368417;19;20259;-43
2022/01/31 07:25:35;;;;;;;6.10;3.20;;;;;;;;;;7370431;19;20566;-42
2022/01/31 07:28:11;;;;;;;8.77;3.63;;;;;;;;;;7369902;19;20136;-42
2022/01/31 07:30:43;;;;;;;9.65;3.97;;;;;;;;;;7371679;19;20190;-42
2022/01/31 07:33:15;;;;;;;6.88;3.60;;;;;;;;;;7373213;19;20607;-42
2022/01/31 07:35:45;;;;;;;8.98;3.38;;;;;;;;;;7367595;19;20138;-42
2022/01/31 07:38:15;;;;;;;4.75;2.58;;;;;;;;;;7369505;19;20138;-43
2022/01/31 07:40:45;;;;;;;5.75;2.65;;;;;;;;;;7369321;19;20602;-42
2022/01/31 07:43:19;;;;;;;4.85;2.90;;;;;;;;;;7364006;19;20600;-43
2022/01/31 07:45:51;;;;;;;4.05;3.08;;;;;;;;;;7370603;19;20120;-42
2022/01/31 07:48:21;;;;;;;5.05;3.17;;;;;;;;;;7363263;19;20523;-43
2022/01/31 07:50:53;;;;;;;4.65;2.55;;;;;;;;;;7373249;19;20150;-42
2022/01/31 07:53:22;;;;;;;3.67;2.55;;;;;;;;;;7365936;19;20135;-43
2022/01/31 07:55:52;;;;;;;4.80;2.70;;;;;;;;;;7368202;19;20597;-43
2022/01/31 07:58:24;;;;;;;4.10;2.15;;;;;;;;;;7368370;19;20470;-43
2022/01/31 08:00:56;;;;;;;5.68;2.33;;;;;;;;;;7358444;19;20127;-44
2022/01/31 08:03:26;;;;;;;4.82;2.03;;;;;;;;;;7369337;19;20236;-41
2022/01/31 08:05:58;;;;;;;3.45;1.40;;;;;;;;;;7363347;19;20587;-43
2022/01/31 08:08:29;;;;;;;2.40;1.45;;;;;;;;;;7366265;19;20155;-42
2022/01/31 08:10:58;;;;;;;3.90;1.80;;;;;;;;;;7369106;19;20127;-41
2022/01/31 08:13:31;;;;;;;3.20;2.05;;;;;;;;;;7367989;19;20192;-42
2022/01/31 08:16:09;;;;;;;1.88;1.48;;;;;;;;;;7369902;19;20142;-42
2022/01/31 08:18:40;;;;;;;2.60;1.42;;;;;;;;;;7365385;19;20135;-43
2022/01/31 08:21:13;;;;;;;3.13;1.73;;;;;;;;;;7370006;19;20119;-42
2022/01/31 08:23:43;;;;;;;2.50;1.73;;;;;;;;;;7367595;19;20159;-42
2022/01/31 08:26:17;;;;;;;3.80;1.67;;;;;;;;;;7364786;19;20132;-42
2022/01/31 08:28:54;;;;;;;3.80;1.40;;;;;;;;;;7365020;19;20142;-42
2022/01/31 08:31:29;;;;;;;1.67;0.93;;;;;;;;;;7360671;19;20146;-42
2022/01/31 08:34:21;;;;;;;3.65;1.38;;;;;;;;;;7373465;19;20127;-42
2022/01/31 08:36:51;;;;;;;5.47;1.40;;;;;;;;;;7362178;19;20145;-43
2022/01/31 08:39:22;;;;;;;4.05;1.30;;;;;;;;;;7369208;19;20161;-43
2022/01/31 08:41:53;;;;;;;1.65;1.10;;;;;;;;;;7367224;19;20132;-42
2022/01/31 08:44:25;;;;;;;0.70;0.70;;;;;;;;;;7367225;19;20490;-42
2022/01/31 08:46:55;;;;;;;2.63;1.05;;;;;;;;;;7364679;19;20138;-42
2022/01/31 08:49:24;;;;;;;1.95;1.10;;;;;;;;;;7362094;19;20135;-42
2022/01/31 08:51:54;;;;;;;1.90;1.10;;;;;;;;;;7364248;19;20119;-42
2022/01/31 08:54:23;;;;;;;3.33;1.13;;;4.50;67.50;;;;;;7370251;19;20157;-42
2022/01/31 08:56:53;;;;;;;1.90;1.10;;;6.10;77.40;;;;;;7369636;19;20642;-42
2022/01/31 08:59:26;;;;;;;1.13;0.77;;;6.10;75.50;;;;;;7370917;19;20178;-44
2022/01/31 09:02:06;;;;;;;1.85;1.00;;;6.30;75.10;;;;;;7353509;19;20131;-42
2022/01/31 09:04:47;;;;;;;2.35;0.88;;;;;;;;;;7367608;19;20123;-43
2022/01/31 09:07:18;;;;;;;1.35;0.98;;;6.30;74.90;;;;;;7366512;19;20142;-42
2022/01/31 09:09:51;;;;;;;3.00;0.73;;;;;;;;;;7371210;19;20226;-43
2022/01/31 09:12:25;;;;;;;1.40;1.00;;;;;;;;;;7369159;19;20133;-35
2022/01/31 09:14:57;;;;;;;2.00;1.00;;;7.10;71.70;;;;;;7363159;19;20138;-35
2022/01/31 09:17:29;;;;;;;5.93;1.88;;;8.40;65.50;;;;;;7352237;19;20131;-35
2022/01/31 09:19:59;;;;;;;2.13;1.00;;;8.60;64.80;;;;;;7360717;19;20131;-35
2022/01/31 09:22:28;;;;;;;2.03;0.97;;;9.60;62.20;;;;;;7362841;19;20439;-35
2022/01/31 09:25:02;;;;;;;1.73;0.87;;;11.50;56.60;;;;;;7357858;19;20701;-35
2022/01/31 09:27:32;;;;;;;2.93;1.07;;;12.50;52.30;;;;;;7356971;19;20953;-35
2022/01/31 09:30:04;;;;;;;1.30;1.20;;;;;;;;;;7361803;19;20379;-35
2022/01/31 09:32:34;;;;;;;2.30;1.13;;;13.30;51.40;;;;;;7371868;19;20722;-35
2022/01/31 09:35:03;;;;;;;1.23;1.00;;;13.20;49.40;;;;;;7370922;19;20415;-35
2022/01/31 09:37:35;;;;;;;2.33;0.93;;;12.00;51.00;;;;;;7373432;19;20380;-35
2022/01/31 09:40:05;;;;;;;4.03;1.90;;;11.00;52.50;;;;;;7377153;19;20802;-35
2022/01/31 09:42:42;;;;;;;2.03;1.20;;;10.00;54.20;;;;;;7379861;19;20375;-34
2022/01/31 09:45:20;;;;;;;2.37;1.20;;;9.40;56.70;;;;;;7378098;19;20399;-35
2022/01/31 09:50:33;;;;;;;2.10;0.95;;;8.60;58.70;;;;;;7373248;19;20436;-42
2022/01/31 09:53:02;;;;;;;2.70;2.07;;;8.40;59.30;;;;;;7376180;19;20147;-44
2022/01/31 09:55:34;;;;;;;2.30;1.17;;;8.30;59.80;;;;;;7371663;19;20971;-43
2022/01/31 09:58:09;;;;;;;1.67;1.27;;;8.20;60.20;;;;;;7378644;19;20977;-43
2022/01/31 10:00:44;;;;;;;3.13;1.23;;;8.20;59.50;;;;;;7372350;19;20565;-43
2022/01/31 10:03:18;;;;;;;2.97;1.17;;;8.30;60.30;;;;;;7377823;19;20123;-43
2022/01/31 10:05:48;;;;;;;3.25;1.50;;;8.30;59.50;;;;;;7374457;19;20148;-43
2022/01/31 10:08:18;;;;;;;1.55;1.17;;;8.00;60.30;;;;;;7372420;19;20143;-43
2022/01/31 10:10:49;;;;;;;2.35;1.20;;;7.90;59.80;;;;;;7373549;19;20139;-43
2022/01/31 10:16:30;;;;;;;2.15;1.20;;;8.00;59.50;;;;;;7369916;19;20144;-42
2022/01/31 10:19:07;;;;;;;2.10;1.50;;;;;;;;;;7377468;19;20139;-43
2022/01/31 10:21:58;;;;;;;1.73;1.10;;;7.70;60.70;;;;;;7348223;19;20575;-43
2022/01/31 10:24:34;;;;;;;1.33;1.23;;;8.10;58.90;;;;;;7369443;19;20408;-49
2022/01/31 10:27:15;;;;;;;3.67;1.30;;;8.30;58.90;;;;;;7367136;19;20498;-51
2022/01/31 10:29:49;;;;;;;1.40;1.17;;;8.40;59.10;;;;;;7376923;19;20139;-50
2022/01/31 10:32:26;;;;;;;3.72;1.20;;;8.50;58.40;;;;;;7371966;19;20617;-49
2022/01/31 10:34:57;;;;;;;3.97;2.03;;;8.60;57.40;;;;;;7370735;19;20135;-49
2022/01/31 10:37:33;;;;;;;3.45;1.23;;;8.60;57.80;;;;;;7367138;19;20151;-50
2022/01/31 10:45:45;;;;;;;7.40;1.50;;;8.70;56.70;;;;;;7374392;19;20143;-47
2022/01/31 10:54:12;;;;;;;1.97;1.67;;;9.40;55.00;;;;;;7370401;19;22295;-49
2022/01/31 10:56:44;;;;;;;1.90;1.00;;;9.80;53.30;;;;;;7357617;19;20392;-49
2022/01/31 10:59:17;;;;;;;1.87;1.00;;;9.50;53.40;;;;;;7372194;19;20397;-49
2022/01/31 11:01:50;;;;;;;1.80;1.23;;;9.30;54.30;;;;;;7356813;19;20417;-49
2022/01/31 11:04:24;;;;;;;2.97;1.10;;;9.20;54.60;;;;;;7365860;19;21061;-49
2022/01/31 11:07:01;;;;;;;1.73;1.07;;;9.30;54.90;;;;;;7360374;19;20408;-49
2022/01/31 11:09:33;;;;;;;4.30;1.40;;;9.30;54.90;;;;;;7366476;19;20416;-49
2022/01/31 11:12:04;;;;;;;1.97;0.90;;;9.20;54.70;;;;;;7364067;19;20396;-49
2022/01/31 11:14:38;;;;;;;4.50;1.20;;;9.30;54.70;;;;;;7371859;19;21102;-49
2022/01/31 11:17:12;;;;;;;4.63;1.23;;;9.50;55.70;;;;;;7362900;19;21316;-49
2022/01/31 11:19:48;;;;;;;1.50;0.77;;;9.60;54.30;;;;;;7361892;19;20503;-49
2022/01/31 11:22:26;;;;;;;2.27;1.40;;;9.60;54.70;;;;;;7371829;19;21108;-49
2022/01/31 11:25:04;;;;;;;2.27;1.23;;;9.80;53.70;;;;;;7369015;19;20404;-48
2022/01/31 11:27:34;;;;;;;2.80;1.10;;;10.40;51.90;;;;;;7369601;19;20763;-49
2022/01/31 11:30:07;;;;;;;5.40;1.60;;;10.50;51.00;;;;;;7369285;19;20409;-50
2022/01/31 11:32:37;;;;;;;4.53;1.20;;;10.30;51.50;;;;;;7374347;19;20420;-49
2022/01/31 11:35:10;;;;;;;3.30;1.00;;;10.10;51.60;;;;;;7358791;19;20420;-50
2022/01/31 11:37:40;;;;;;;2.00;0.83;;;9.80;53.30;;;;;;7368611;19;20794;-50
2022/01/31 11:40:14;;;;;;;1.13;0.77;;;9.50;54.50;;;;;;7371168;19;20408;-51
2022/01/31 11:42:45;;;;;;;23.27;3.97;;;9.60;55.50;;;;;;7362191;19;20417;-49
2022/01/31 11:45:17;;;;;;;2.37;1.00;;;;;;;;;;7366019;19;20409;-53
2022/01/31 11:47:52;;;;;;;1.90;0.93;;;;;;;;;;7365209;19;20467;-53
2022/01/31 11:50:25;;;;;;;1.20;1.10;;;;;;;;;;7360735;19;20862;-53
2022/01/31 11:52:57;;;;;;;4.33;1.20;;;;;;;;;;7361824;19;20371;-53
2022/01/31 11:55:29;;;;;;;1.70;1.02;;;;;;;;;;7365391;19;20415;-53
2022/01/31 11:58:01;;;;;;;2.73;1.20;;;;;;;;;;7360870;19;20155;-53
2022/01/31 12:00:33;;;;;;;0.95;0.70;;;;;;;;;;7361490;19;20738;-53
2022/01/31 12:03:05;;;;;;;1.00;0.80;;;;;;;;;;7351443;19;20150;-52
2022/01/31 12:05:38;;;;;;;3.35;1.40;;;;;;;;;;7366420;19;20152;-54
2022/01/31 12:08:15;;;;;;;2.78;0.95;;;;;;;;;;7361747;19;20154;-54
2022/01/31 12:10:47;;;;;;;1.30;0.70;;;;;;;;;;7362675;19;20438;-53
2022/01/31 12:13:46;;;;;;;2.50;0.82;;;;;;;;;;7365623;19;20135;-53
2022/01/31 12:16:39;;;;;;;1.98;1.05;;;;;;;;;;7359893;19;20171;-53
2022/01/31 12:19:33;;;;;;;3.25;1.10;;;;;;;;;;7367246;19;20496;-53
2022/01/31 12:22:08;;;;;;;3.05;1.52;;;;;;;;;;7363228;19;20997;-53
2022/01/31 12:24:43;;;;;;;1.75;0.98;;;;;;;;;;7361414;19;20543;-54
2022/01/31 12:27:16;;;;;;;1.92;1.50;;;;;;;;;;7367041;19;20139;-54
2022/01/31 12:29:47;;;;;;;1.25;0.90;;;;;;;;;;7371306;19;20199;-53
2022/01/31 12:32:22;;;;;;;6.65;1.40;;;;;;;;;;7363157;19;20135;-53
2022/01/31 12:34:58;;;;;;;2.05;1.33;;;;;;;;;;7366867;19;20140;-54
2022/01/31 12:37:35;;;;;;;2.72;1.30;;;;;;;;;;7371522;19;20151;-57
2022/01/31 12:40:15;;;;;;;4.22;1.38;;;;;;;;;;7368477;19;20135;-53
2022/01/31 12:45:35;;;;;;;2.28;0.90;;;;;;;;;;7366140;19;20616;-54
2022/01/31 12:48:24;;;;;;;2.47;1.38;;;;;;;;;;7367395;19;20178;-53
2022/01/31 12:51:05;;;;;;;3.92;0.90;;;;;;;;;;7372987;19;20142;-53
2022/01/31 12:53:48;;;;;;;1.23;0.80;;;;;;;;;;7377856;19;20131;-53
2022/01/31 12:56:24;;;;;;;2.45;0.95;;;;;;;;;;7356364;19;20933;-55
2022/01/31 12:58:58;;;;;;;6.30;1.20;;;;;;;;;;7372282;19;20517;-56
2022/01/31 13:01:29;;;;;;;3.45;1.10;;;;;;;;;;7365875;19;20135;-56
2022/01/31 13:04:02;;;;;;;2.67;1.05;;;;;;;;;;7373831;19;20472;-56
2022/01/31 13:06:36;;;;;;;3.85;1.25;;;;;;;;;;7364746;19;20143;-56
2022/01/31 13:09:15;;;;;;;1.98;1.25;;;;;;;;;;7373277;19;20173;-56
2022/01/31 13:11:50;;;;;;;5.63;1.05;;;;;;;;;;7377446;19;20142;-56
2022/01/31 13:14:23;;;;;;;7.43;1.20;;;;;;;;;;7366799;19;20124;-56
2022/01/31 13:17:01;;;;;;;2.97;1.00;;;;;;;;;;7346713;19;20806;-56
2022/01/31 13:19:35;;;;;;;2.05;0.90;;;;;;;;;;7371240;19;20160;-56
2022/01/31 13:22:11;;;;;;;1.13;1.02;;;;;;;;;;7375975;19;20678;-57
2022/01/31 13:24:44;;;;;;;2.55;1.30;;;;;;;;;;7369252;19;20142;-56
2022/01/31 13:27:19;;;;;;;2.83;1.13;;;;;;;;;;7374590;19;20151;-56
2022/01/31 13:29:50;;;;;;;4.18;0.90;;;;;;;;;;7369337;19;20128;-57
2022/01/31 13:32:28;;;;;;;3.17;1.23;;;;;;;;;;7371507;19;20538;-55
2022/01/31 13:34:59;;;;;;;4.20;1.40;;;;;;;;;;7377292;19;20139;-55
2022/01/31 13:37:31;;;;;;;4.10;1.60;;;;;;;;;;7369222;19;20144;-55
2022/01/31 13:40:07;;;;;;;2.80;1.63;;;;;;;;;;7374430;19;20135;-57
2022/01/31 13:42:38;;;;;;;2.47;1.58;;;;;;;;;;7377348;19;20132;-54
2022/01/31 13:45:14;;;;;;;1.05;1.00;;;;;;;;;;7370087;19;20146;-55
2022/01/31 13:47:48;;;;;;;1.45;1.05;;;9.80;55.00;;;;;;7375347;19;20494;-55
2022/01/31 13:50:28;;;;;;;7.70;1.15;;;7.20;69.00;;;;;;7376035;19;20127;-55
2022/01/31 13:53:04;;;;;;;5.43;1.00;;;7.90;78.50;;;;;;7370927;19;20247;-55
2022/01/31 13:55:44;;;;;;;4.15;1.00;;;7.10;88.90;;;;;;7371927;19;20136;-55
2022/01/31 13:58:25;;;;;;;4.88;1.25;;;7.50;62.90;;;;;;7367336;19;20135;-55
2022/01/31 14:00:57;;;;;;;1.38;1.10;;;7.10;63.00;;;;;;7363982;19;20147;-55
2022/01/31 14:03:30;;;;;;;5.32;1.70;;;7.20;62.80;;;;;;7363771;19;20479;-55
2022/01/31 14:06:09;;;;;;;5.05;1.08;;;7.20;62.40;;;;;;7372354;19;20139;-55
2022/01/31 14:08:44;;;;;;;6.00;1.05;;;7.20;62.00;;;;;;7370249;19;20166;-55
2022/01/31 14:11:19;;;;;;;4.57;1.40;;;7.00;63.20;;;;;;7372894;19;20417;-55
2022/01/31 14:13:50;;;;;;;1.75;0.93;;;6.90;64.00;;;;;;7369207;19;20159;-55
2022/01/31 14:16:24;;;;;;;4.78;0.95;;;6.80;63.90;;;;;;7366671;19;20631;-55
2022/01/31 14:18:57;;;;;;;4.50;1.15;;;6.60;65.10;;;;;;7368881;19;20131;-55
2022/01/31 14:21:29;;;;;;;5.78;1.55;;;6.60;65.80;;;;;;7367941;19;20858;-55
2022/01/31 14:24:04;;;;;;;1.38;0.80;;;6.60;64.60;;;;;;7364519;19;20132;-55
2022/01/31 14:26:40;;;;;;;3.25;1.38;;;6.60;64.20;;;;;;7364419;19;20606;-55
2022/01/31 14:29:14;;;;;;;4.93;1.50;;;6.60;64.00;;;;;;7364782;19;20142;-55
2022/01/31 14:31:49;;;;;;;1.42;1.15;;;6.60;63.00;;;;;;7366928;19;20139;-56
2022/01/31 14:34:20;;;;;;;6.55;1.23;;;6.60;62.30;;;;;;7363792;19;20232;-55
2022/01/31 14:36:52;;;;;;;4.20;1.30;;;6.60;62.70;;;;;;7359950;19;20495;-55
2022/01/31 14:39:34;;;;;;;7.15;2.55;;;6.60;62.20;;;;;;7351631;19;20603;-56
2022/01/31 14:42:37;;;;;;;5.40;1.10;;;6.60;61.10;;;;;;7354535;19;20146;-55
2022/01/31 14:47:54;;;;;;;5.53;0.88;;;6.60;61.60;;;;;;7376306;19;20139;-55
2022/01/31 14:50:28;;;;;;;7.00;1.10;;;6.60;62.60;;;;;;7369701;19;20444;-55
2022/01/31 14:52:58;;;;;;;1.80;1.13;;;;;;;;;;7374251;19;20135;-55
2022/01/31 14:55:32;;;;;;;4.10;1.00;;;;;;;;;;7371236;19;20135;-55
2022/01/31 14:58:07;;;;;;;2.45;1.10;;;;;;;;;;7368198;19;20128;-55
2022/01/31 15:00:39;;;;;;;2.05;1.00;;;;;;;;;;7374946;19;20665;-55
2022/01/31 15:03:13;;;;;;;1.73;1.48;;;6.60;62.60;;;;;;7366423;19;20127;-55
2022/01/31 15:05:47;;;;;;;4.00;1.17;;;;;;;;;;7369304;19;20222;-54
2022/01/31 15:08:17;;;;;;;14.70;2.50;;;6.30;69.70;;;;;;7368840;19;20550;-54
2022/01/31 15:10:50;;;;;;;1.50;1.20;;;5.80;73.00;;;;;;7373489;19;20128;-54
2022/01/31 15:13:22;;;;;;;3.80;1.75;;;5.70;73.20;;;;;;7372711;19;20191;-54